レイキャビク/ケフラヴィーク の空港の天気 - METARとTAF

ケフラヴィーク国際空港 ( BIKF / KEF ) - アイスランド ケプラヴィーク
飛行場実況気象(Metar)
観測時間11/30 11:00 GMT (11/30 11:00 UTC)
風向・風速南 2m/s
視程10km以上
天気現象
少しの雲 雲底高度 850m
全天の8割程度の雲 雲底高度 4880m
気温-2℃
湿度86%
気圧1017hPa
METARBIKF 301100Z 17004KT 9999 FEW028 BKN160 M02/M04 Q1017
過去の天気等 Google飛行場航空写真 Wunderground天気予報

過去48時間のMETAR

飛行場予報(TAF)
発表時間: 11/30 07:58 GMT (11/30 07:58 UTC)
予報対象時間: 30日9時 GMT ~ 1日9時 GMT
風向・風速北西 3m/s
視程10km以上
全天の4割程度の雲 雲底高度 460m
全天の8割程度の雲 雲底高度 760m
30日14時 GMT ~ 30日17時 GMT に徐々に
風向・風速南東 10m/s
30日17時 GMT ~ 30日19時 GMT に徐々に
風向・風速東南東 15m/s 瞬間風速 21m/s
視程1000m
天気現象
全天を覆う雲 雲底高度 210m
30日20時 GMT ~ 30日22時 GMT に徐々に
風向・風速南東 21m/s 瞬間風速 27m/s
視程4000m
天気現象雨霧雨
30日22時 GMT ~ 1日6時 GMT に一時的に
視程1500m
天気現象雨霧雨 もや
全天を覆う雲 雲底高度 120m
30日23時 GMT ~ 1日1時 GMT に徐々に
風向・風速南 13m/s
1日4時 GMT ~ 1日6時 GMT に徐々に
風向・風速南南西 15m/s 瞬間風速 22m/s
視程10km以上
天気現象弱いしゅう雨
全天の8割程度の雲 雲底高度 550m
1日6時 GMT ~ 1日9時 GMT に一時的に
天気現象しゅう雨
全天の8割程度の積乱雲 雲底高度 300m
TAF BIKF 300758Z 3009/0109 32006KT 9999 SCT015 BKN025 TX08/0103Z TN00/3009Z
BECMG 3014/3017 14020KT
BECMG 3017/3019 12030G40KT 1000 SN OVC007
BECMG 3020/3022 13040G52KT 4000 RADZ
TEMPO 3022/0106 1500 RADZ BR OVC004
BECMG 3023/0101 19025KT
BECMG 0104/0106 21030G43KT 9999 -SHRA BKN018
TEMPO 0106/0109 SHRA BKN010CB